sensor_id;sensor_type;location;lat;lon;timestamp;temperature;humidity
83142;DHT22;75194;51.180;5.972;2024-02-04T00:01:04;9.60;90.90
83142;DHT22;75194;51.180;5.972;2024-02-04T00:03:29;9.50;90.90
83142;DHT22;75194;51.180;5.972;2024-02-04T00:05:55;9.60;90.80
83142;DHT22;75194;51.180;5.972;2024-02-04T00:08:21;9.50;90.90
83142;DHT22;75194;51.180;5.972;2024-02-04T00:10:47;9.60;90.90
83142;DHT22;75194;51.180;5.972;2024-02-04T00:13:12;9.50;90.80
83142;DHT22;75194;51.180;5.972;2024-02-04T00:15:38;9.50;90.90
83142;DHT22;75194;51.180;5.972;2024-02-04T00:18:05;9.60;90.90
83142;DHT22;75194;51.180;5.972;2024-02-04T00:20:31;9.60;90.70
83142;DHT22;75194;51.180;5.972;2024-02-04T00:22:58;9.60;90.60
83142;DHT22;75194;51.180;5.972;2024-02-04T00:25:24;9.60;90.60
83142;DHT22;75194;51.180;5.972;2024-02-04T00:27:49;9.60;90.50
83142;DHT22;75194;51.180;5.972;2024-02-04T00:30:15;9.70;90.20
83142;DHT22;75194;51.180;5.972;2024-02-04T00:32:41;9.60;90.30
83142;DHT22;75194;51.180;5.972;2024-02-04T00:35:06;9.60;90.50
83142;DHT22;75194;51.180;5.972;2024-02-04T00:37:32;9.70;90.40
83142;DHT22;75194;51.180;5.972;2024-02-04T00:39:58;9.60;90.60
83142;DHT22;75194;51.180;5.972;2024-02-04T00:42:24;9.60;90.50
83142;DHT22;75194;51.180;5.972;2024-02-04T00:44:49;9.60;90.80
83142;DHT22;75194;51.180;5.972;2024-02-04T00:47:15;9.60;90.90
83142;DHT22;75194;51.180;5.972;2024-02-04T00:49:40;9.60;91.10
83142;DHT22;75194;51.180;5.972;2024-02-04T00:52:06;9.60;91.00
83142;DHT22;75194;51.180;5.972;2024-02-04T00:54:32;9.60;91.00
83142;DHT22;75194;51.180;5.972;2024-02-04T00:56:57;9.60;91.10
83142;DHT22;75194;51.180;5.972;2024-02-04T00:59:24;9.60;91.10
83142;DHT22;75194;51.180;5.972;2024-02-04T01:01:50;9.50;91.20
83142;DHT22;75194;51.180;5.972;2024-02-04T01:04:16;9.60;91.30
83142;DHT22;75194;51.180;5.972;2024-02-04T01:06:41;9.60;91.20
83142;DHT22;75194;51.180;5.972;2024-02-04T01:09:07;9.60;91.00
83142;DHT22;75194;51.180;5.972;2024-02-04T01:11:33;9.60;91.20
83142;DHT22;75194;51.180;5.972;2024-02-04T01:13:59;9.60;90.80
83142;DHT22;75194;51.180;5.972;2024-02-04T01:16:24;9.60;90.80
83142;DHT22;75194;51.180;5.972;2024-02-04T01:18:50;9.60;90.90
83142;DHT22;75194;51.180;5.972;2024-02-04T01:21:16;9.60;90.80
83142;DHT22;75194;51.180;5.972;2024-02-04T01:23:41;9.60;90.70
83142;DHT22;75194;51.180;5.972;2024-02-04T01:26:07;9.60;90.80
83142;DHT22;75194;51.180;5.972;2024-02-04T01:28:32;9.60;90.90
83142;DHT22;75194;51.180;5.972;2024-02-04T01:30:58;9.60;91.00
83142;DHT22;75194;51.180;5.972;2024-02-04T01:33:24;9.60;91.10
83142;DHT22;75194;51.180;5.972;2024-02-04T01:35:50;9.60;90.90
83142;DHT22;75194;51.180;5.972;2024-02-04T01:38:16;9.60;91.20
83142;DHT22;75194;51.180;5.972;2024-02-04T01:40:42;9.60;91.20
83142;DHT22;75194;51.180;5.972;2024-02-04T01:43:07;9.60;91.20
83142;DHT22;75194;51.180;5.972;2024-02-04T01:45:33;9.60;91.30
83142;DHT22;75194;51.180;5.972;2024-02-04T01:47:58;9.60;91.30
83142;DHT22;75194;51.180;5.972;2024-02-04T01:50:24;9.60;91.40
83142;DHT22;75194;51.180;5.972;2024-02-04T01:52:51;9.60;91.40
83142;DHT22;75194;51.180;5.972;2024-02-04T01:55:18;9.70;91.30
83142;DHT22;75194;51.180;5.972;2024-02-04T01:57:44;9.60;91.20
83142;DHT22;75194;51.180;5.972;2024-02-04T02:00:10;9.70;91.20
83142;DHT22;75194;51.180;5.972;2024-02-04T02:02:40;9.70;91.10
83142;DHT22;75194;51.180;5.972;2024-02-04T02:05:07;9.70;91.00
83142;DHT22;75194;51.180;5.972;2024-02-04T02:07:33;9.70;90.80
83142;DHT22;75194;51.180;5.972;2024-02-04T02:09:59;9.70;90.60
83142;DHT22;75194;51.180;5.972;2024-02-04T02:12:39;9.70;90.40
83142;DHT22;75194;51.180;5.972;2024-02-04T02:15:18;9.70;90.50
83142;DHT22;75194;51.180;5.972;2024-02-04T02:23:03;9.70;90.90
83142;DHT22;75194;51.180;5.972;2024-02-04T02:25:33;9.70;90.70
83142;DHT22;75194;51.180;5.972;2024-02-04T02:28:01;9.70;90.80
83142;DHT22;75194;51.180;5.972;2024-02-04T02:30:26;9.70;90.90
83142;DHT22;75194;51.180;5.972;2024-02-04T02:32:52;9.70;90.90
83142;DHT22;75194;51.180;5.972;2024-02-04T02:35:18;9.70;91.10
83142;DHT22;75194;51.180;5.972;2024-02-04T02:37:55;9.60;91.20
83142;DHT22;75194;51.180;5.972;2024-02-04T02:40:40;9.70;91.10
83142;DHT22;75194;51.180;5.972;2024-02-04T02:43:10;9.70;91.00
83142;DHT22;75194;51.180;5.972;2024-02-04T02:45:39;9.70;90.90
83142;DHT22;75194;51.180;5.972;2024-02-04T02:48:07;9.70;90.90
83142;DHT22;75194;51.180;5.972;2024-02-04T02:50:37;9.70;90.80
83142;DHT22;75194;51.180;5.972;2024-02-04T02:53:04;9.70;90.60
83142;DHT22;75194;51.180;5.972;2024-02-04T02:55:29;9.80;90.40
83142;DHT22;75194;51.180;5.972;2024-02-04T02:57:55;9.70;90.40
83142;DHT22;75194;51.180;5.972;2024-02-04T03:00:21;9.80;90.30
83142;DHT22;75194;51.180;5.972;2024-02-04T03:02:46;9.80;90.20
83142;DHT22;75194;51.180;5.972;2024-02-04T03:05:13;9.80;90.20
83142;DHT22;75194;51.180;5.972;2024-02-04T03:07:40;9.80;89.90
83142;DHT22;75194;51.180;5.972;2024-02-04T03:10:06;9.80;90.10
83142;DHT22;75194;51.180;5.972;2024-02-04T03:12:32;9.80;89.90
83142;DHT22;75194;51.180;5.972;2024-02-04T03:14:57;9.80;89.80
83142;DHT22;75194;51.180;5.972;2024-02-04T03:17:23;9.80;89.70
83142;DHT22;75194;51.180;5.972;2024-02-04T03:19:49;9.80;89.70
83142;DHT22;75194;51.180;5.972;2024-02-04T03:22:17;9.80;89.70
83142;DHT22;75194;51.180;5.972;2024-02-04T03:24:43;9.80;89.80
83142;DHT22;75194;51.180;5.972;2024-02-04T03:27:08;9.80;89.90
83142;DHT22;75194;51.180;5.972;2024-02-04T03:29:34;9.80;90.00
83142;DHT22;75194;51.180;5.972;2024-02-04T03:32:01;9.80;89.80
83142;DHT22;75194;51.180;5.972;2024-02-04T03:34:27;9.80;89.80
83142;DHT22;75194;51.180;5.972;2024-02-04T03:36:53;9.90;89.70
83142;DHT22;75194;51.180;5.972;2024-02-04T03:39:18;9.90;89.60
83142;DHT22;75194;51.180;5.972;2024-02-04T03:41:44;9.90;89.60
83142;DHT22;75194;51.180;5.972;2024-02-04T03:44:09;9.90;89.70
83142;DHT22;75194;51.180;5.972;2024-02-04T03:46:35;9.90;89.50
83142;DHT22;75194;51.180;5.972;2024-02-04T03:49:01;9.90;89.60
83142;DHT22;75194;51.180;5.972;2024-02-04T03:51:27;9.90;89.60
83142;DHT22;75194;51.180;5.972;2024-02-04T03:53:53;9.90;89.60
83142;DHT22;75194;51.180;5.972;2024-02-04T03:56:18;9.90;89.40
83142;DHT22;75194;51.180;5.972;2024-02-04T03:58:44;9.90;89.40
83142;DHT22;75194;51.180;5.972;2024-02-04T04:01:10;9.90;89.30
83142;DHT22;75194;51.180;5.972;2024-02-04T04:03:39;9.90;89.30
83142;DHT22;75194;51.180;5.972;2024-02-04T04:06:05;9.90;89.30
83142;DHT22;75194;51.180;5.972;2024-02-04T04:08:31;9.90;89.40
83142;DHT22;75194;51.180;5.972;2024-02-04T04:10:57;9.90;89.40
83142;DHT22;75194;51.180;5.972;2024-02-04T04:13:22;9.90;89.40
83142;DHT22;75194;51.180;5.972;2024-02-04T04:15:48;9.90;89.10
83142;DHT22;75194;51.180;5.972;2024-02-04T04:18:14;9.90;89.00
83142;DHT22;75194;51.180;5.972;2024-02-04T04:20:40;9.90;89.10
83142;DHT22;75194;51.180;5.972;2024-02-04T04:23:06;9.90;89.10
83142;DHT22;75194;51.180;5.972;2024-02-04T04:25:31;9.80;89.00
83142;DHT22;75194;51.180;5.972;2024-02-04T04:27:59;9.90;88.90
83142;DHT22;75194;51.180;5.972;2024-02-04T04:30:25;9.90;88.90
83142;DHT22;75194;51.180;5.972;2024-02-04T04:32:50;9.90;88.80
83142;DHT22;75194;51.180;5.972;2024-02-04T04:35:16;9.90;88.90
83142;DHT22;75194;51.180;5.972;2024-02-04T04:37:42;9.90;88.80
83142;DHT22;75194;51.180;5.972;2024-02-04T04:40:08;9.90;88.70
83142;DHT22;75194;51.180;5.972;2024-02-04T04:42:34;9.90;88.70
83142;DHT22;75194;51.180;5.972;2024-02-04T04:44:59;9.90;88.80
83142;DHT22;75194;51.180;5.972;2024-02-04T04:47:25;9.90;89.00
83142;DHT22;75194;51.180;5.972;2024-02-04T04:49:51;9.90;88.90
83142;DHT22;75194;51.180;5.972;2024-02-04T04:52:16;9.90;88.80
83142;DHT22;75194;51.180;5.972;2024-02-04T04:54:42;9.90;88.80
83142;DHT22;75194;51.180;5.972;2024-02-04T04:57:08;9.90;88.80
83142;DHT22;75194;51.180;5.972;2024-02-04T04:59:33;9.90;88.80
83142;DHT22;75194;51.180;5.972;2024-02-04T05:02:01;9.90;88.90
83142;DHT22;75194;51.180;5.972;2024-02-04T05:04:27;9.90;88.80
83142;DHT22;75194;51.180;5.972;2024-02-04T05:06:53;9.90;88.70
83142;DHT22;75194;51.180;5.972;2024-02-04T05:09:19;9.90;88.70
83142;DHT22;75194;51.180;5.972;2024-02-04T05:11:44;9.90;88.70
83142;DHT22;75194;51.180;5.972;2024-02-04T05:14:10;9.90;88.70
83142;DHT22;75194;51.180;5.972;2024-02-04T05:16:36;9.90;88.70
83142;DHT22;75194;51.180;5.972;2024-02-04T05:19:02;9.90;88.60
83142;DHT22;75194;51.180;5.972;2024-02-04T05:21:28;10.00;88.50
83142;DHT22;75194;51.180;5.972;2024-02-04T05:23:54;10.00;88.50
83142;DHT22;75194;51.180;5.972;2024-02-04T05:26:20;10.00;88.40
83142;DHT22;75194;51.180;5.972;2024-02-04T05:28:46;10.00;88.40
83142;DHT22;75194;51.180;5.972;2024-02-04T05:31:11;10.00;88.20
83142;DHT22;75194;51.180;5.972;2024-02-04T05:33:37;10.00;87.90
83142;DHT22;75194;51.180;5.972;2024-02-04T05:36:03;10.00;87.90
83142;DHT22;75194;51.180;5.972;2024-02-04T05:38:30;10.00;87.90
83142;DHT22;75194;51.180;5.972;2024-02-04T05:40:55;10.00;87.90
83142;DHT22;75194;51.180;5.972;2024-02-04T05:43:21;10.00;87.80
83142;DHT22;75194;51.180;5.972;2024-02-04T05:45:47;10.00;87.90
83142;DHT22;75194;51.180;5.972;2024-02-04T05:48:12;10.00;88.00
83142;DHT22;75194;51.180;5.972;2024-02-04T05:50:39;10.00;87.80
83142;DHT22;75194;51.180;5.972;2024-02-04T05:53:05;10.10;87.80
83142;DHT22;75194;51.180;5.972;2024-02-04T05:55:30;10.10;87.90
83142;DHT22;75194;51.180;5.972;2024-02-04T05:57:56;10.00;87.90
83142;DHT22;75194;51.180;5.972;2024-02-04T06:00:23;10.00;88.10
83142;DHT22;75194;51.180;5.972;2024-02-04T06:02:49;10.10;88.00
83142;DHT22;75194;51.180;5.972;2024-02-04T06:05:15;10.10;87.90
83142;DHT22;75194;51.180;5.972;2024-02-04T06:07:42;10.00;88.00
83142;DHT22;75194;51.180;5.972;2024-02-04T06:10:11;10.00;88.10
83142;DHT22;75194;51.180;5.972;2024-02-04T06:12:37;10.00;88.40
83142;DHT22;75194;51.180;5.972;2024-02-04T06:15:11;10.00;88.40
83142;DHT22;75194;51.180;5.972;2024-02-04T06:17:37;10.00;88.50
83142;DHT22;75194;51.180;5.972;2024-02-04T06:20:03;10.00;88.70
83142;DHT22;75194;51.180;5.972;2024-02-04T06:22:29;10.00;88.50
83142;DHT22;75194;51.180;5.972;2024-02-04T06:24:54;10.00;88.60
83142;DHT22;75194;51.180;5.972;2024-02-04T06:27:20;10.00;88.60
83142;DHT22;75194;51.180;5.972;2024-02-04T06:29:46;10.00;88.60
83142;DHT22;75194;51.180;5.972;2024-02-04T06:32:11;10.00;88.70
83142;DHT22;75194;51.180;5.972;2024-02-04T06:34:38;10.00;88.80
83142;DHT22;75194;51.180;5.972;2024-02-04T06:37:04;9.90;88.90
83142;DHT22;75194;51.180;5.972;2024-02-04T06:39:30;9.90;89.10
83142;DHT22;75194;51.180;5.972;2024-02-04T06:41:55;9.90;89.00
83142;DHT22;75194;51.180;5.972;2024-02-04T06:44:21;9.90;89.40
83142;DHT22;75194;51.180;5.972;2024-02-04T06:46:46;9.90;89.50
83142;DHT22;75194;51.180;5.972;2024-02-04T06:49:13;9.90;89.30
83142;DHT22;75194;51.180;5.972;2024-02-04T06:51:43;9.90;89.30
83142;DHT22;75194;51.180;5.972;2024-02-04T06:54:10;9.90;89.50
83142;DHT22;75194;51.180;5.972;2024-02-04T06:56:35;9.90;89.60
83142;DHT22;75194;51.180;5.972;2024-02-04T06:59:02;9.80;89.70
83142;DHT22;75194;51.180;5.972;2024-02-04T07:01:28;9.80;89.80
83142;DHT22;75194;51.180;5.972;2024-02-04T07:03:53;9.80;89.80
83142;DHT22;75194;51.180;5.972;2024-02-04T07:06:19;9.90;89.50
83142;DHT22;75194;51.180;5.972;2024-02-04T07:08:45;9.80;89.30
83142;DHT22;75194;51.180;5.972;2024-02-04T07:11:10;9.90;89.40
83142;DHT22;75194;51.180;5.972;2024-02-04T07:13:36;9.90;89.00
83142;DHT22;75194;51.180;5.972;2024-02-04T07:16:01;9.90;88.60
83142;DHT22;75194;51.180;5.972;2024-02-04T07:18:27;9.90;88.60
83142;DHT22;75194;51.180;5.972;2024-02-04T07:20:53;9.90;88.70
83142;DHT22;75194;51.180;5.972;2024-02-04T07:23:18;9.90;88.70
83142;DHT22;75194;51.180;5.972;2024-02-04T07:25:44;9.90;88.80
83142;DHT22;75194;51.180;5.972;2024-02-04T07:28:10;9.90;89.00
83142;DHT22;75194;51.180;5.972;2024-02-04T07:30:36;9.90;89.00
83142;DHT22;75194;51.180;5.972;2024-02-04T07:33:02;9.90;89.00
83142;DHT22;75194;51.180;5.972;2024-02-04T07:35:27;9.90;88.90
83142;DHT22;75194;51.180;5.972;2024-02-04T07:37:53;9.90;88.80
83142;DHT22;75194;51.180;5.972;2024-02-04T07:40:19;9.90;88.60
83142;DHT22;75194;51.180;5.972;2024-02-04T07:42:44;9.90;88.50
83142;DHT22;75194;51.180;5.972;2024-02-04T07:45:10;9.90;89.00
83142;DHT22;75194;51.180;5.972;2024-02-04T07:47:36;9.90;89.30
83142;DHT22;75194;51.180;5.972;2024-02-04T07:50:02;9.90;89.30
83142;DHT22;75194;51.180;5.972;2024-02-04T07:52:28;9.90;89.10
83142;DHT22;75194;51.180;5.972;2024-02-04T07:54:53;9.90;88.90
83142;DHT22;75194;51.180;5.972;2024-02-04T07:57:19;9.90;88.60
83142;DHT22;75194;51.180;5.972;2024-02-04T07:59:46;9.90;88.60
83142;DHT22;75194;51.180;5.972;2024-02-04T08:02:12;10.00;88.40
83142;DHT22;75194;51.180;5.972;2024-02-04T08:04:40;10.00;88.10
83142;DHT22;75194;51.180;5.972;2024-02-04T08:07:06;10.10;87.80
83142;DHT22;75194;51.180;5.972;2024-02-04T08:09:32;10.00;87.50
83142;DHT22;75194;51.180;5.972;2024-02-04T08:11:58;10.00;88.10
83142;DHT22;75194;51.180;5.972;2024-02-04T08:14:23;10.10;87.60
83142;DHT22;75194;51.180;5.972;2024-02-04T08:16:49;10.10;87.90
83142;DHT22;75194;51.180;5.972;2024-02-04T08:19:15;10.10;87.80
83142;DHT22;75194;51.180;5.972;2024-02-04T08:21:40;10.10;87.90
83142;DHT22;75194;51.180;5.972;2024-02-04T08:24:06;10.10;87.40
83142;DHT22;75194;51.180;5.972;2024-02-04T08:26:32;10.10;87.40
83142;DHT22;75194;51.180;5.972;2024-02-04T08:28:59;10.10;87.50
83142;DHT22;75194;51.180;5.972;2024-02-04T08:31:25;10.10;87.20
83142;DHT22;75194;51.180;5.972;2024-02-04T08:33:50;10.20;87.10
83142;DHT22;75194;51.180;5.972;2024-02-04T08:36:18;10.20;87.10
83142;DHT22;75194;51.180;5.972;2024-02-04T08:38:44;10.20;87.40
83142;DHT22;75194;51.180;5.972;2024-02-04T08:41:09;10.20;87.40
83142;DHT22;75194;51.180;5.972;2024-02-04T08:43:35;10.20;87.20
83142;DHT22;75194;51.180;5.972;2024-02-04T08:46:00;10.20;86.80
83142;DHT22;75194;51.180;5.972;2024-02-04T08:48:27;10.20;86.90
83142;DHT22;75194;51.180;5.972;2024-02-04T08:50:53;10.20;86.90
83142;DHT22;75194;51.180;5.972;2024-02-04T08:53:20;10.20;87.00
83142;DHT22;75194;51.180;5.972;2024-02-04T08:55:46;10.30;86.70
83142;DHT22;75194;51.180;5.972;2024-02-04T08:58:12;10.30;86.80
83142;DHT22;75194;51.180;5.972;2024-02-04T09:00:37;10.40;86.50
83142;DHT22;75194;51.180;5.972;2024-02-04T09:03:04;10.40;86.60
83142;DHT22;75194;51.180;5.972;2024-02-04T09:05:29;10.40;86.40
83142;DHT22;75194;51.180;5.972;2024-02-04T09:07:55;10.40;86.50
83142;DHT22;75194;51.180;5.972;2024-02-04T09:10:21;10.40;86.40
83142;DHT22;75194;51.180;5.972;2024-02-04T09:12:47;10.40;85.80
83142;DHT22;75194;51.180;5.972;2024-02-04T09:15:13;10.50;85.90
83142;DHT22;75194;51.180;5.972;2024-02-04T09:17:39;10.50;85.90
83142;DHT22;75194;51.180;5.972;2024-02-04T09:20:05;10.60;85.60
83142;DHT22;75194;51.180;5.972;2024-02-04T09:22:31;10.50;85.70
83142;DHT22;75194;51.180;5.972;2024-02-04T09:24:57;10.50;85.90
83142;DHT22;75194;51.180;5.972;2024-02-04T09:27:22;10.50;85.90
83142;DHT22;75194;51.180;5.972;2024-02-04T09:29:48;10.40;86.40
83142;DHT22;75194;51.180;5.972;2024-02-04T09:32:13;10.40;86.30
83142;DHT22;75194;51.180;5.972;2024-02-04T09:34:39;10.40;86.40
83142;DHT22;75194;51.180;5.972;2024-02-04T09:37:05;10.40;86.50
83142;DHT22;75194;51.180;5.972;2024-02-04T09:39:30;10.30;86.70
83142;DHT22;75194;51.180;5.972;2024-02-04T09:41:56;10.30;86.70
83142;DHT22;75194;51.180;5.972;2024-02-04T09:44:23;10.40;86.80
83142;DHT22;75194;51.180;5.972;2024-02-04T09:46:49;10.40;86.70
83142;DHT22;75194;51.180;5.972;2024-02-04T09:49:16;10.40;86.70
83142;DHT22;75194;51.180;5.972;2024-02-04T09:51:42;10.50;85.90
83142;DHT22;75194;51.180;5.972;2024-02-04T09:54:10;10.50;85.80
83142;DHT22;75194;51.180;5.972;2024-02-04T09:56:37;10.50;85.70
83142;DHT22;75194;51.180;5.972;2024-02-04T09:59:04;10.60;85.90
83142;DHT22;75194;51.180;5.972;2024-02-04T10:01:31;10.70;85.30
83142;DHT22;75194;51.180;5.972;2024-02-04T10:03:57;10.60;85.10
83142;DHT22;75194;51.180;5.972;2024-02-04T10:06:24;10.60;85.30
83142;DHT22;75194;51.180;5.972;2024-02-04T10:08:50;10.60;84.90
83142;DHT22;75194;51.180;5.972;2024-02-04T10:11:16;10.60;85.10
83142;DHT22;75194;51.180;5.972;2024-02-04T10:13:45;10.60;85.20
83142;DHT22;75194;51.180;5.972;2024-02-04T10:16:13;10.60;85.50
83142;DHT22;75194;51.180;5.972;2024-02-04T10:18:45;10.60;85.50
83142;DHT22;75194;51.180;5.972;2024-02-04T10:21:21;10.60;85.50
83142;DHT22;75194;51.180;5.972;2024-02-04T10:23:48;10.50;85.60
83142;DHT22;75194;51.180;5.972;2024-02-04T10:26:15;10.50;85.10
83142;DHT22;75194;51.180;5.972;2024-02-04T10:28:41;10.50;85.50
83142;DHT22;75194;51.180;5.972;2024-02-04T10:31:10;10.60;85.30
83142;DHT22;75194;51.180;5.972;2024-02-04T10:33:39;10.60;85.10
83142;DHT22;75194;51.180;5.972;2024-02-04T10:36:05;10.60;85.10
83142;DHT22;75194;51.180;5.972;2024-02-04T10:38:32;10.70;84.50
83142;DHT22;75194;51.180;5.972;2024-02-04T10:41:00;10.70;84.70
83142;DHT22;75194;51.180;5.972;2024-02-04T10:43:33;10.70;84.50
83142;DHT22;75194;51.180;5.972;2024-02-04T10:46:22;10.70;84.70
83142;DHT22;75194;51.180;5.972;2024-02-04T10:49:01;10.70;84.90
83142;DHT22;75194;51.180;5.972;2024-02-04T10:51:30;10.60;85.30
83142;DHT22;75194;51.180;5.972;2024-02-04T10:53:56;10.60;86.10
83142;DHT22;75194;51.180;5.972;2024-02-04T10:56:34;10.60;86.40
83142;DHT22;75194;51.180;5.972;2024-02-04T10:59:03;10.50;86.70
83142;DHT22;75194;51.180;5.972;2024-02-04T11:01:29;10.40;87.30
83142;DHT22;75194;51.180;5.972;2024-02-04T11:03:56;10.50;87.30
83142;DHT22;75194;51.180;5.972;2024-02-04T11:06:23;10.40;87.30
83142;DHT22;75194;51.180;5.972;2024-02-04T11:08:50;10.50;87.10
83142;DHT22;75194;51.180;5.972;2024-02-04T11:11:18;10.50;87.00
83142;DHT22;75194;51.180;5.972;2024-02-04T11:13:45;10.50;87.00
83142;DHT22;75194;51.180;5.972;2024-02-04T11:19:11;10.50;86.80
83142;DHT22;75194;51.180;5.972;2024-02-04T11:22:17;10.50;86.90
83142;DHT22;75194;51.180;5.972;2024-02-04T11:27:22;10.60;86.50
83142;DHT22;75194;51.180;5.972;2024-02-04T11:29:48;10.60;85.80
83142;DHT22;75194;51.180;5.972;2024-02-04T11:32:14;10.60;86.10
83142;DHT22;75194;51.180;5.972;2024-02-04T11:34:40;10.50;86.10
83142;DHT22;75194;51.180;5.972;2024-02-04T11:37:16;10.50;86.50
83142;DHT22;75194;51.180;5.972;2024-02-04T11:39:54;10.50;86.60
83142;DHT22;75194;51.180;5.972;2024-02-04T11:42:23;10.50;87.00
83142;DHT22;75194;51.180;5.972;2024-02-04T11:44:49;10.50;87.00
83142;DHT22;75194;51.180;5.972;2024-02-04T11:47:25;10.50;87.00
83142;DHT22;75194;51.180;5.972;2024-02-04T11:49:55;10.50;86.80
83142;DHT22;75194;51.180;5.972;2024-02-04T11:52:21;10.50;86.90
83142;DHT22;75194;51.180;5.972;2024-02-04T11:54:47;10.50;87.20
83142;DHT22;75194;51.180;5.972;2024-02-04T11:57:14;10.50;87.10
83142;DHT22;75194;51.180;5.972;2024-02-04T11:59:42;10.50;87.20
83142;DHT22;75194;51.180;5.972;2024-02-04T12:02:07;10.50;87.10
83142;DHT22;75194;51.180;5.972;2024-02-04T12:04:34;10.60;87.50
83142;DHT22;75194;51.180;5.972;2024-02-04T12:07:00;10.50;87.30
83142;DHT22;75194;51.180;5.972;2024-02-04T12:09:28;10.50;87.50
83142;DHT22;75194;51.180;5.972;2024-02-04T12:11:54;10.50;87.40
83142;DHT22;75194;51.180;5.972;2024-02-04T12:14:21;10.50;87.40
83142;DHT22;75194;51.180;5.972;2024-02-04T12:16:50;10.50;87.30
83142;DHT22;75194;51.180;5.972;2024-02-04T12:19:15;10.50;86.90
83142;DHT22;75194;51.180;5.972;2024-02-04T12:21:42;10.60;86.80
83142;DHT22;75194;51.180;5.972;2024-02-04T12:24:07;10.60;86.90
83142;DHT22;75194;51.180;5.972;2024-02-04T12:26:33;10.60;86.80
83142;DHT22;75194;51.180;5.972;2024-02-04T12:29:00;10.60;86.80
83142;DHT22;75194;51.180;5.972;2024-02-04T12:31:27;10.60;86.70
83142;DHT22;75194;51.180;5.972;2024-02-04T12:33:58;10.70;86.20
83142;DHT22;75194;51.180;5.972;2024-02-04T12:36:26;10.70;85.80
83142;DHT22;75194;51.180;5.972;2024-02-04T12:38:56;10.80;85.30
83142;DHT22;75194;51.180;5.972;2024-02-04T12:41:25;10.90;84.80
83142;DHT22;75194;51.180;5.972;2024-02-04T12:43:56;10.90;84.50
83142;DHT22;75194;51.180;5.972;2024-02-04T12:46:22;11.00;83.90
83142;DHT22;75194;51.180;5.972;2024-02-04T12:48:55;11.00;83.80
83142;DHT22;75194;51.180;5.972;2024-02-04T12:51:25;11.10;83.90
83142;DHT22;75194;51.180;5.972;2024-02-04T12:54:11;11.10;83.40
83142;DHT22;75194;51.180;5.972;2024-02-04T12:56:47;11.10;83.20
83142;DHT22;75194;51.180;5.972;2024-02-04T12:59:33;11.10;83.10
83142;DHT22;75194;51.180;5.972;2024-02-04T13:02:04;11.10;82.70
83142;DHT22;75194;51.180;5.972;2024-02-04T13:04:38;11.10;82.70
83142;DHT22;75194;51.180;5.972;2024-02-04T13:07:11;11.10;82.70
83142;DHT22;75194;51.180;5.972;2024-02-04T13:09:43;11.10;82.60
83142;DHT22;75194;51.180;5.972;2024-02-04T13:12:10;11.10;82.40
83142;DHT22;75194;51.180;5.972;2024-02-04T13:14:37;11.10;82.00
83142;DHT22;75194;51.180;5.972;2024-02-04T13:17:04;11.10;82.50
83142;DHT22;75194;51.180;5.972;2024-02-04T13:19:37;11.10;81.80
83142;DHT22;75194;51.180;5.972;2024-02-04T13:22:04;11.20;82.00
83142;DHT22;75194;51.180;5.972;2024-02-04T13:24:31;11.20;81.70
83142;DHT22;75194;51.180;5.972;2024-02-04T13:26:57;11.20;81.40
83142;DHT22;75194;51.180;5.972;2024-02-04T13:29:24;11.20;81.60
83142;DHT22;75194;51.180;5.972;2024-02-04T13:31:49;11.20;81.60
83142;DHT22;75194;51.180;5.972;2024-02-04T13:34:15;11.20;81.50
83142;DHT22;75194;51.180;5.972;2024-02-04T13:36:42;11.10;81.40
83142;DHT22;75194;51.180;5.972;2024-02-04T13:39:08;11.10;81.30
83142;DHT22;75194;51.180;5.972;2024-02-04T13:41:34;11.10;81.30
83142;DHT22;75194;51.180;5.972;2024-02-04T13:44:01;11.10;81.70
83142;DHT22;75194;51.180;5.972;2024-02-04T13:46:27;11.10;81.50
83142;DHT22;75194;51.180;5.972;2024-02-04T13:48:52;11.10;81.50
83142;DHT22;75194;51.180;5.972;2024-02-04T13:51:18;11.10;81.50
83142;DHT22;75194;51.180;5.972;2024-02-04T13:53:44;11.10;81.30
83142;DHT22;75194;51.180;5.972;2024-02-04T13:56:09;11.20;81.00
83142;DHT22;75194;51.180;5.972;2024-02-04T13:58:35;11.20;81.20
83142;DHT22;75194;51.180;5.972;2024-02-04T14:01:01;11.20;81.20
83142;DHT22;75194;51.180;5.972;2024-02-04T14:03:26;11.20;80.80
83142;DHT22;75194;51.180;5.972;2024-02-04T14:05:52;11.30;81.20
83142;DHT22;75194;51.180;5.972;2024-02-04T14:08:20;11.20;81.00
83142;DHT22;75194;51.180;5.972;2024-02-04T14:10:46;11.20;80.80
83142;DHT22;75194;51.180;5.972;2024-02-04T14:13:12;11.20;80.50
83142;DHT22;75194;51.180;5.972;2024-02-04T14:15:38;11.20;80.70
83142;DHT22;75194;51.180;5.972;2024-02-04T14:18:04;11.20;80.70
83142;DHT22;75194;51.180;5.972;2024-02-04T14:20:31;11.20;80.60
83142;DHT22;75194;51.180;5.972;2024-02-04T14:22:56;11.20;80.70
83142;DHT22;75194;51.180;5.972;2024-02-04T14:25:23;11.20;80.70
83142;DHT22;75194;51.180;5.972;2024-02-04T14:27:50;11.20;80.50
83142;DHT22;75194;51.180;5.972;2024-02-04T14:30:15;11.20;80.40
83142;DHT22;75194;51.180;5.972;2024-02-04T14:32:41;11.20;80.10
83142;DHT22;75194;51.180;5.972;2024-02-04T14:35:08;11.20;80.30
83142;DHT22;75194;51.180;5.972;2024-02-04T14:37:36;11.20;80.20
83142;DHT22;75194;51.180;5.972;2024-02-04T14:40:03;11.20;80.60
83142;DHT22;75194;51.180;5.972;2024-02-04T14:42:29;11.20;80.80
83142;DHT22;75194;51.180;5.972;2024-02-04T14:44:55;11.10;80.90
83142;DHT22;75194;51.180;5.972;2024-02-04T14:47:21;11.10;81.00
83142;DHT22;75194;51.180;5.972;2024-02-04T14:49:47;11.10;80.90
83142;DHT22;75194;51.180;5.972;2024-02-04T14:52:14;11.10;81.20
83142;DHT22;75194;51.180;5.972;2024-02-04T14:54:40;11.10;80.90
83142;DHT22;75194;51.180;5.972;2024-02-04T14:57:05;11.10;80.90
83142;DHT22;75194;51.180;5.972;2024-02-04T14:59:31;11.10;81.00
83142;DHT22;75194;51.180;5.972;2024-02-04T15:02:03;11.20;81.00
83142;DHT22;75194;51.180;5.972;2024-02-04T15:04:31;11.10;80.80
83142;DHT22;75194;51.180;5.972;2024-02-04T15:06:58;11.20;81.00
83142;DHT22;75194;51.180;5.972;2024-02-04T15:09:23;11.20;80.80
83142;DHT22;75194;51.180;5.972;2024-02-04T15:11:49;11.10;80.80
83142;DHT22;75194;51.180;5.972;2024-02-04T15:14:16;11.20;81.00
83142;DHT22;75194;51.180;5.972;2024-02-04T15:16:44;11.20;80.80
83142;DHT22;75194;51.180;5.972;2024-02-04T15:19:10;11.20;80.70
83142;DHT22;75194;51.180;5.972;2024-02-04T15:21:36;11.20;80.60
83142;DHT22;75194;51.180;5.972;2024-02-04T15:24:02;11.20;80.70
83142;DHT22;75194;51.180;5.972;2024-02-04T15:26:31;11.20;80.80
83142;DHT22;75194;51.180;5.972;2024-02-04T15:29:02;11.10;80.70
83142;DHT22;75194;51.180;5.972;2024-02-04T15:31:28;11.20;80.80
83142;DHT22;75194;51.180;5.972;2024-02-04T15:33:54;11.10;80.90
83142;DHT22;75194;51.180;5.972;2024-02-04T15:36:20;11.10;81.10
83142;DHT22;75194;51.180;5.972;2024-02-04T15:38:46;11.10;80.80
83142;DHT22;75194;51.180;5.972;2024-02-04T15:41:13;11.10;81.10
83142;DHT22;75194;51.180;5.972;2024-02-04T15:43:38;11.10;81.30
83142;DHT22;75194;51.180;5.972;2024-02-04T15:46:09;11.10;81.50